createdAt,value
2022-07-29T00:02:11.647Z,106.28
2022-07-29T00:04:40.472Z,113.80
2022-07-29T00:07:08.777Z,106.13
2022-07-29T00:09:50.389Z,112.53
2022-07-29T00:12:25.177Z,104.40
2022-07-29T00:14:54.313Z,108.45
2022-07-29T00:17:23.952Z,114.13
2022-07-29T00:19:52.184Z,108.93
2022-07-29T00:22:20.680Z,102.07
2022-07-29T00:24:49.984Z,114.82
2022-07-29T00:27:18.016Z,113.10
2022-07-29T00:29:46.127Z,110.88
2022-07-29T00:32:14.305Z,105.80
2022-07-29T00:35:01.118Z,114.88
2022-07-29T00:37:29.106Z,111.45
2022-07-29T00:39:57.146Z,118.63
2022-07-29T00:42:25.153Z,116.30
2022-07-29T00:44:53.131Z,116.22
2022-07-29T00:47:21.362Z,106.72
2022-07-29T00:49:50.657Z,116.68
2022-07-29T00:52:18.669Z,117.13
2022-07-29T00:54:46.994Z,108.32
2022-07-29T00:57:15.407Z,112.13
2022-07-29T00:59:43.579Z,105.40
2022-07-29T01:02:14.646Z,102.18
2022-07-29T01:04:43.547Z,101.13
2022-07-29T01:07:13.356Z,101.50
2022-07-29T01:09:46.007Z,104.93
2022-07-29T01:12:17.742Z,103.55
2022-07-29T01:14:46.815Z,100.78
2022-07-29T01:17:18.870Z,96.22
2022-07-29T01:19:51.709Z,101.95
2022-07-29T01:22:40.053Z,96.97
2022-07-29T01:25:15.547Z,107.20
2022-07-29T01:28:15.185Z,104.15
2022-07-29T01:30:46.429Z,105.10
2022-07-29T01:33:39.191Z,109.60
2022-07-29T01:36:11.032Z,103.35
2022-07-29T01:38:41.079Z,102.30
2022-07-29T01:41:12.262Z,95.60
2022-07-29T01:43:44.841Z,97.75
2022-07-29T01:46:16.886Z,105.60
2022-07-29T01:48:49.505Z,97.38
2022-07-29T01:51:21.971Z,99.07
2022-07-29T01:53:54.912Z,100.05
2022-07-29T01:56:24.423Z,93.60
2022-07-29T01:58:54.505Z,92.20
2022-07-29T02:01:25.462Z,87.70
2022-07-29T02:03:56.018Z,90.95
2022-07-29T02:06:25.030Z,90.57
2022-07-29T02:08:53.875Z,89.05
2022-07-29T02:11:21.909Z,84.55
2022-07-29T02:13:51.440Z,86.47
2022-07-29T02:16:21.483Z,82.10
2022-07-29T02:18:53.270Z,87.18
2022-07-29T02:21:23.998Z,79.57
2022-07-29T02:23:54.059Z,88.30
2022-07-29T02:26:23.110Z,82.35
2022-07-29T02:28:52.731Z,93.53
2022-07-29T02:31:23.263Z,85.80
2022-07-29T02:33:56.372Z,93.25
2022-07-29T02:36:25.119Z,83.65
2022-07-29T02:38:54.386Z,93.43
2022-07-29T02:41:27.032Z,89.90
2022-07-29T02:43:57.913Z,91.95
2022-07-29T02:46:30.212Z,90.57
2022-07-29T02:49:03.440Z,88.13
2022-07-29T02:51:43.794Z,91.45
2022-07-29T02:54:17.886Z,87.30
2022-07-29T02:56:46.757Z,82.85
2022-07-29T02:59:16.637Z,89.60
2022-07-29T03:01:45.907Z,94.53
2022-07-29T03:04:17.452Z,93.38
2022-07-29T03:06:46.645Z,92.50
2022-07-29T03:09:15.835Z,93.78
2022-07-29T03:11:49.480Z,93.88
2022-07-29T03:14:20.469Z,88.78
2022-07-29T03:16:48.961Z,85.28
2022-07-29T03:19:18.684Z,85.18
2022-07-29T03:21:46.721Z,76.70
2022-07-29T03:24:27.602Z,86.95
2022-07-29T03:26:57.003Z,75.32
2022-07-29T03:29:25.013Z,77.75
2022-07-29T03:32:01.456Z,76.18
2022-07-29T03:34:32.370Z,86.80
2022-07-29T03:37:02.325Z,77.88
2022-07-29T03:39:35.171Z,81.90
2022-07-29T03:42:03.319Z,76.05
2022-07-29T03:44:32.239Z,79.70
2022-07-29T03:47:03.031Z,80.25
2022-07-29T03:49:33.321Z,85.57
2022-07-29T03:52:01.395Z,81.93
2022-07-29T03:54:29.854Z,85.28
2022-07-29T03:57:02.513Z,88.72
2022-07-29T03:59:31.228Z,89.03
2022-07-29T04:02:02.528Z,83.68
2022-07-29T04:04:34.795Z,93.07
2022-07-29T04:07:03.406Z,91.20
2022-07-29T04:09:31.785Z,91.40
2022-07-29T04:12:03.542Z,89.32
2022-07-29T04:14:32.850Z,87.30
2022-07-29T04:17:01.303Z,94.55
2022-07-29T04:19:29.609Z,96.72
2022-07-29T04:21:59.157Z,97.78
2022-07-29T04:24:27.510Z,97.00
2022-07-29T04:26:55.931Z,96.43
2022-07-29T04:29:24.034Z,95.63
2022-07-29T04:31:52.397Z,88.60
2022-07-29T04:34:20.749Z,92.43
2022-07-29T04:36:49.056Z,89.05
2022-07-29T04:39:22.946Z,83.80
2022-07-29T04:41:52.446Z,82.75
2022-07-29T04:44:28.669Z,90.15
2022-07-29T04:46:57.832Z,86.00
2022-07-29T04:49:26.476Z,81.10
2022-07-29T04:51:54.565Z,85.93
2022-07-29T04:54:24.334Z,87.40
2022-07-29T04:56:53.645Z,76.32
2022-07-29T04:59:22.344Z,76.07
2022-07-29T05:01:50.353Z,69.38
2022-07-29T05:04:19.125Z,68.75
2022-07-29T05:06:47.915Z,76.82
2022-07-29T05:09:33.848Z,77.18
2022-07-29T05:12:01.945Z,76.88
2022-07-29T05:14:30.066Z,78.53
2022-07-29T05:16:58.409Z,74.13
2022-07-29T05:19:26.623Z,72.38
2022-07-29T05:21:54.833Z,68.95
2022-07-29T05:24:23.326Z,71.15
2022-07-29T05:26:52.533Z,74.35
2022-07-29T05:29:43.938Z,65.07
2022-07-29T05:32:08.966Z,61.25
2022-07-29T05:34:36.923Z,57.10
2022-07-29T05:37:18.743Z,61.17
2022-07-29T05:39:48.467Z,62.25
2022-07-29T05:42:19.654Z,55.40
2022-07-29T05:44:48.452Z,56.80
2022-07-29T05:47:16.987Z,57.22
2022-07-29T05:49:44.901Z,49.88
2022-07-29T05:52:14.109Z,59.47
2022-07-29T05:54:42.166Z,66.18
2022-07-29T05:57:10.481Z,68.40
2022-07-29T05:59:56.960Z,11.48
2022-07-29T06:02:32.387Z,8.90
2022-07-29T06:05:00.749Z,11.77
2022-07-29T06:07:29.187Z,13.30
2022-07-29T06:09:59.668Z,12.68
2022-07-29T06:12:27.616Z,13.30
2022-07-29T06:14:57.816Z,22.73
2022-07-29T06:17:31.470Z,17.80
2022-07-29T06:19:59.626Z,21.42
2022-07-29T06:22:27.691Z,20.75
2022-07-29T06:24:58.572Z,49.53
2022-07-29T06:27:26.785Z,69.43
2022-07-29T06:30:00.775Z,66.40
2022-07-29T06:32:28.777Z,66.65
2022-07-29T06:35:24.553Z,79.85
2022-07-29T06:37:46.985Z,67.47
2022-07-29T06:40:34.440Z,117.63
2022-07-29T06:43:02.511Z,33.75
2022-07-29T06:45:34.803Z,44.58
2022-07-29T06:48:03.042Z,20.85
2022-07-29T06:50:32.880Z,13.23
2022-07-29T06:53:02.702Z,11.32
2022-07-29T06:55:30.848Z,28.27
2022-07-29T06:58:08.047Z,11.90
2022-07-29T07:00:39.644Z,16.75
2022-07-29T07:03:07.820Z,13.00
2022-07-29T07:05:38.409Z,12.65
2022-07-29T07:08:12.117Z,9.70
2022-07-29T07:10:40.597Z,11.27
2022-07-29T07:13:10.070Z,11.55
2022-07-29T07:15:40.341Z,8.13
2022-07-29T07:18:09.897Z,10.85
2022-07-29T07:20:38.554Z,8.13
2022-07-29T07:23:15.012Z,7.32
2022-07-29T07:25:46.312Z,9.25
2022-07-29T07:28:14.539Z,8.63
2022-07-29T07:30:44.461Z,7.70
2022-07-29T07:33:12.619Z,10.73
2022-07-29T07:35:40.750Z,7.25
2022-07-29T07:38:11.331Z,8.82
2022-07-29T07:40:39.559Z,7.45
2022-07-29T07:43:10.683Z,8.63
2022-07-29T07:45:41.088Z,8.85
2022-07-29T07:48:12.228Z,7.05
2022-07-29T07:50:40.346Z,8.88
2022-07-29T07:53:10.061Z,9.07
2022-07-29T07:58:30.581Z,5.07
2022-07-29T08:01:03.545Z,8.73
2022-07-29T08:03:33.189Z,5.07
2022-07-29T08:06:03.095Z,5.78
2022-07-29T08:08:31.282Z,6.35
2022-07-29T08:11:09.387Z,7.22
2022-07-29T08:13:38.962Z,8.98
2022-07-29T08:16:13.983Z,7.53
2022-07-29T08:18:45.112Z,6.82
2022-07-29T08:21:16.339Z,7.45
2022-07-29T08:23:59.569Z,7.07
2022-07-29T08:26:28.808Z,7.82
2022-07-29T08:28:56.688Z,6.68
2022-07-29T08:31:24.790Z,6.82
2022-07-29T08:33:54.304Z,7.90
2022-07-29T08:36:23.082Z,6.70
2022-07-29T08:38:51.987Z,7.85
2022-07-29T08:41:21.181Z,8.02
2022-07-29T08:43:49.168Z,7.18
2022-07-29T08:46:18.169Z,7.22
2022-07-29T08:48:46.809Z,6.85
2022-07-29T08:51:17.871Z,7.35
2022-07-29T08:53:48.470Z,7.22
2022-07-29T08:56:17.851Z,7.05
2022-07-29T08:58:50.670Z,6.82
2022-07-29T09:01:35.008Z,6.95
2022-07-29T09:04:11.293Z,8.35
2022-07-29T09:06:44.727Z,6.95
2022-07-29T09:09:13.154Z,7.70
2022-07-29T09:11:41.270Z,7.72
2022-07-29T09:14:09.945Z,9.98
2022-07-29T09:16:55.398Z,4.93
2022-07-29T09:19:28.871Z,10.63
2022-07-29T09:22:03.310Z,8.43
2022-07-29T09:24:45.396Z,9.88
2022-07-29T09:27:22.094Z,7.75
2022-07-29T09:29:58.630Z,8.43
2022-07-29T09:32:29.262Z,9.13
2022-07-29T09:35:22.204Z,9.90
2022-07-29T09:37:52.219Z,5.38
2022-07-29T09:40:21.839Z,8.45
2022-07-29T09:42:50.186Z,8.15
2022-07-29T09:45:29.929Z,10.10
2022-07-29T09:48:09.874Z,8.98
2022-07-29T09:50:40.047Z,9.23
2022-07-29T09:53:10.592Z,9.05
2022-07-29T09:55:49.170Z,11.25
2022-07-29T09:58:18.582Z,7.05
2022-07-29T10:00:48.023Z,9.30
2022-07-29T10:03:16.980Z,10.75
2022-07-29T10:05:45.918Z,10.07
2022-07-29T10:08:15.413Z,8.90
2022-07-29T10:10:44.866Z,10.52
2022-07-29T10:13:16.032Z,11.05
2022-07-29T10:15:47.363Z,8.90
2022-07-29T10:18:18.539Z,6.68
2022-07-29T10:20:46.934Z,9.95
2022-07-29T10:23:16.788Z,9.80
2022-07-29T10:25:46.637Z,10.57
2022-07-29T10:28:16.803Z,7.60
2022-07-29T10:30:45.831Z,9.35
2022-07-29T10:33:24.658Z,12.40
2022-07-29T10:36:18.611Z,9.68
2022-07-29T10:38:56.857Z,6.95
2022-07-29T10:41:51.811Z,9.75
2022-07-29T10:44:23.234Z,10.40
2022-07-29T10:46:53.444Z,8.45
2022-07-29T10:49:25.237Z,10.68
2022-07-29T10:52:01.763Z,7.47
2022-07-29T10:54:48.657Z,11.02
2022-07-29T10:57:21.441Z,8.15
2022-07-29T11:00:32.897Z,8.60
2022-07-29T11:03:04.900Z,10.02
2022-07-29T11:05:55.361Z,9.18
2022-07-29T11:08:28.013Z,8.80
2022-07-29T11:11:39.711Z,11.30
2022-07-29T11:14:13.624Z,9.38
2022-07-29T11:17:00.861Z,8.27
2022-07-29T11:19:30.557Z,10.73
2022-07-29T11:21:59.362Z,7.65
2022-07-29T11:24:34.890Z,10.70
2022-07-29T11:27:18.429Z,8.15
2022-07-29T11:29:57.363Z,7.63
2022-07-29T11:35:19.319Z,7.93
2022-07-29T11:38:28.786Z,17.40
2022-07-29T11:41:22.940Z,10.88
2022-07-29T11:43:53.279Z,9.73
2022-07-29T11:46:50.841Z,8.50
2022-07-29T11:49:33.011Z,8.73
2022-07-29T11:52:04.102Z,9.60
2022-07-29T11:54:57.459Z,12.00
2022-07-29T11:57:22.481Z,7.75
2022-07-29T11:59:50.876Z,8.88
2022-07-29T12:02:36.336Z,9.07
2022-07-29T12:05:10.892Z,7.15
2022-07-29T12:07:41.150Z,8.90
2022-07-29T12:10:19.728Z,10.63
2022-07-29T12:12:57.887Z,11.02
2022-07-29T12:15:45.553Z,10.77
2022-07-29T12:18:24.228Z,10.90
2022-07-29T12:21:04.822Z,10.27
2022-07-29T12:23:35.099Z,11.38
2022-07-29T12:26:07.591Z,10.90
2022-07-29T12:28:51.580Z,10.52
2022-07-29T12:31:42.348Z,9.43
2022-07-29T12:34:09.267Z,11.57
2022-07-29T12:36:38.317Z,9.40
2022-07-29T12:39:06.825Z,10.38
2022-07-29T12:41:35.035Z,7.75
2022-07-29T12:44:03.175Z,8.98
2022-07-29T12:46:31.249Z,11.35
2022-07-29T12:48:59.899Z,7.18
2022-07-29T12:51:33.410Z,6.93
2022-07-29T12:54:08.033Z,8.45
2022-07-29T12:56:45.642Z,7.70
2022-07-29T12:59:19.502Z,7.13
2022-07-29T13:01:50.285Z,8.27
2022-07-29T13:04:33.476Z,10.48
2022-07-29T13:07:04.377Z,7.90
2022-07-29T13:09:39.918Z,10.27
2022-07-29T13:12:09.488Z,7.53
2022-07-29T13:14:41.033Z,9.50
2022-07-29T13:17:11.924Z,5.88
2022-07-29T13:19:41.584Z,8.10
2022-07-29T13:22:12.448Z,6.82
2022-07-29T13:24:54.681Z,7.22
2022-07-29T13:27:24.129Z,7.47
2022-07-29T13:29:55.308Z,4.85
2022-07-29T13:32:32.105Z,6.93
2022-07-29T13:35:05.228Z,6.22
2022-07-29T13:37:36.301Z,6.97
2022-07-29T13:40:05.583Z,7.72
2022-07-29T13:42:34.434Z,9.63
2022-07-29T13:45:03.008Z,7.05
2022-07-29T13:47:32.628Z,6.95
2022-07-29T13:50:01.556Z,6.32
2022-07-29T13:52:29.646Z,7.40
2022-07-29T13:54:59.364Z,6.25
2022-07-29T13:57:30.574Z,8.27
2022-07-29T14:00:01.003Z,6.38
2022-07-29T14:02:34.134Z,6.30
2022-07-29T14:05:07.679Z,6.70
2022-07-29T14:07:41.029Z,6.63
2022-07-29T14:10:11.298Z,5.15
2022-07-29T14:12:41.934Z,7.03
2022-07-29T14:15:11.737Z,7.05
2022-07-29T14:17:39.721Z,5.28
2022-07-29T14:20:14.147Z,6.43
2022-07-29T14:22:42.578Z,7.05
2022-07-29T14:25:17.365Z,7.57
2022-07-29T14:27:47.739Z,8.85
2022-07-29T14:30:16.684Z,7.28
2022-07-29T14:32:45.290Z,8.32
2022-07-29T14:35:13.454Z,10.07
2022-07-29T14:37:43.269Z,6.55
2022-07-29T14:40:12.146Z,7.57
2022-07-29T14:42:42.250Z,7.30
2022-07-29T14:45:13.546Z,7.95
2022-07-29T14:47:42.866Z,8.10
2022-07-29T14:50:11.856Z,6.60
2022-07-29T14:52:40.233Z,7.40
2022-07-29T14:55:19.827Z,8.15
2022-07-29T14:57:50.919Z,9.75
2022-07-29T15:00:19.545Z,8.18
2022-07-29T15:03:03.328Z,8.30
2022-07-29T15:05:39.554Z,7.45
2022-07-29T15:08:09.212Z,11.82
2022-07-29T15:10:37.369Z,7.85
2022-07-29T15:13:06.917Z,8.60
2022-07-29T15:15:34.886Z,9.18
2022-07-29T15:18:02.733Z,6.50
2022-07-29T15:20:30.714Z,7.85
2022-07-29T15:22:58.660Z,10.18
2022-07-29T15:25:28.164Z,8.18
2022-07-29T15:28:00.803Z,10.05
2022-07-29T15:30:33.235Z,7.45
2022-07-29T15:33:01.679Z,9.75
2022-07-29T15:35:29.560Z,11.73
2022-07-29T15:37:57.651Z,12.98
2022-07-29T15:40:25.609Z,9.63
2022-07-29T15:42:53.733Z,9.80
2022-07-29T15:45:22.008Z,8.60
2022-07-29T15:47:51.444Z,10.05
2022-07-29T15:50:22.217Z,7.70
2022-07-29T15:52:52.643Z,10.57
2022-07-29T15:55:22.519Z,9.23
2022-07-29T15:57:50.508Z,8.70
2022-07-29T16:00:19.716Z,10.50
2022-07-29T16:02:47.678Z,9.77
2022-07-29T16:05:17.024Z,8.15
2022-07-29T16:07:45.413Z,9.82
2022-07-29T16:10:15.574Z,8.10
2022-07-29T16:12:43.732Z,8.88
2022-07-29T16:15:14.590Z,6.97
2022-07-29T16:17:45.521Z,6.85
2022-07-29T16:20:13.950Z,7.55
2022-07-29T16:22:45.631Z,8.93
2022-07-29T16:25:13.610Z,7.88
2022-07-29T16:27:41.652Z,8.30
2022-07-29T16:30:10.769Z,7.75
2022-07-29T16:32:39.888Z,7.35
2022-07-29T16:35:09.099Z,8.73
2022-07-29T16:37:38.027Z,9.23
2022-07-29T16:40:11.497Z,7.72
2022-07-29T16:42:47.707Z,8.95
2022-07-29T16:45:21.384Z,6.90
2022-07-29T16:47:49.675Z,9.52
2022-07-29T16:50:18.988Z,9.50
2022-07-29T16:52:46.950Z,8.52
2022-07-29T16:55:16.475Z,7.28
2022-07-29T16:57:44.515Z,7.95
2022-07-29T17:00:14.242Z,8.30
2022-07-29T17:02:42.316Z,8.48
2022-07-29T17:05:12.401Z,7.65
2022-07-29T17:07:40.999Z,7.95
2022-07-29T17:10:10.150Z,8.65
2022-07-29T17:12:41.101Z,7.10
2022-07-29T17:15:12.614Z,7.30
2022-07-29T17:17:55.369Z,7.32
2022-07-29T17:20:26.624Z,8.18
2022-07-29T17:22:54.685Z,9.80
2022-07-29T17:25:22.794Z,7.28
2022-07-29T17:28:00.599Z,9.90
2022-07-29T17:30:33.322Z,8.20
2022-07-29T17:33:01.414Z,8.95
2022-07-29T17:35:46.820Z,7.50
2022-07-29T17:38:14.770Z,8.05
2022-07-29T17:40:42.777Z,7.55
2022-07-29T17:43:12.440Z,9.68
2022-07-29T17:45:49.394Z,8.20
2022-07-29T17:48:21.532Z,7.75
2022-07-29T17:50:52.903Z,8.93
2022-07-29T17:53:20.940Z,9.07
2022-07-29T17:55:50.005Z,7.47
2022-07-29T17:58:19.436Z,7.38
2022-07-29T18:00:47.694Z,9.07
2022-07-29T18:03:15.888Z,9.88
2022-07-29T18:05:43.998Z,8.10
2022-07-29T18:08:12.567Z,8.23
2022-07-29T18:10:41.339Z,8.68
2022-07-29T18:13:09.448Z,8.85
2022-07-29T18:15:38.730Z,8.77
2022-07-29T18:18:06.827Z,7.90
2022-07-29T18:20:34.930Z,9.63
2022-07-29T18:23:04.599Z,10.95
2022-07-29T18:25:34.525Z,9.45
2022-07-29T18:28:08.861Z,8.85
2022-07-29T18:30:38.253Z,7.70
2022-07-29T18:33:24.265Z,8.15
2022-07-29T18:36:10.598Z,10.85
2022-07-29T18:38:39.290Z,8.23
2022-07-29T18:41:07.977Z,9.50
2022-07-29T18:43:35.938Z,8.73
2022-07-29T18:46:06.875Z,9.85
2022-07-29T18:48:35.280Z,13.70
2022-07-29T18:51:03.164Z,9.50
2022-07-29T18:53:37.622Z,8.90
2022-07-29T18:56:08.313Z,10.20
2022-07-29T18:58:38.313Z,7.95
2022-07-29T19:01:07.590Z,10.02
2022-07-29T19:03:35.656Z,25.75
2022-07-29T19:06:03.599Z,8.82
2022-07-29T19:08:32.208Z,9.10
2022-07-29T19:11:00.137Z,23.98
2022-07-29T19:13:28.451Z,14.13
2022-07-29T19:15:57.691Z,20.83
2022-07-29T19:18:27.022Z,7.57
2022-07-29T19:20:54.886Z,21.25
2022-07-29T19:23:22.848Z,8.23
2022-07-29T19:25:53.600Z,15.25
2022-07-29T19:28:22.431Z,27.38
2022-07-29T19:30:50.762Z,30.27
2022-07-29T19:33:21.669Z,11.25
2022-07-29T19:35:54.768Z,6.78
2022-07-29T19:38:23.134Z,9.88
2022-07-29T19:40:51.373Z,24.90
2022-07-29T19:43:52.063Z,9.25
2022-07-29T19:46:07.234Z,9.77
2022-07-29T19:48:35.225Z,9.65
2022-07-29T19:51:04.813Z,9.45
2022-07-29T19:53:33.389Z,8.95
2022-07-29T19:56:01.556Z,9.30
2022-07-29T19:58:29.900Z,8.15
2022-07-29T20:00:57.774Z,8.57
2022-07-29T20:03:25.637Z,9.05
2022-07-29T20:05:53.946Z,7.50
2022-07-29T20:08:25.785Z,9.00
2022-07-29T20:10:56.993Z,10.45
2022-07-29T20:13:24.869Z,9.50
2022-07-29T20:15:55.268Z,9.32
2022-07-29T20:18:23.449Z,9.00
2022-07-29T20:20:51.478Z,8.65
2022-07-29T20:23:22.217Z,30.52
2022-07-29T20:25:51.524Z,9.07
2022-07-29T20:28:19.781Z,8.85
2022-07-29T20:30:47.873Z,6.35
2022-07-29T20:33:16.191Z,18.13
2022-07-29T20:35:44.183Z,10.23
2022-07-29T20:38:16.324Z,6.93
2022-07-29T20:40:46.074Z,9.05
2022-07-29T20:43:15.849Z,12.45
2022-07-29T20:45:43.727Z,8.73
2022-07-29T20:48:13.454Z,7.03
2022-07-29T20:50:42.907Z,7.57
2022-07-29T20:53:10.854Z,9.73
2022-07-29T20:55:39.095Z,7.25
2022-07-29T20:58:06.986Z,6.55
2022-07-29T21:00:36.305Z,7.90
2022-07-29T21:03:04.677Z,5.82
2022-07-29T21:05:33.050Z,8.13
2022-07-29T21:08:01.130Z,7.35
2022-07-29T21:10:29.477Z,7.03
2022-07-29T21:12:57.477Z,10.00
2022-07-29T21:15:29.194Z,10.00
2022-07-29T21:18:02.795Z,7.93
2022-07-29T21:20:31.165Z,10.73
2022-07-29T21:22:59.296Z,10.55
2022-07-29T21:25:28.567Z,8.90
2022-07-29T21:28:13.892Z,15.35
2022-07-29T21:30:42.100Z,7.57
2022-07-29T21:33:14.381Z,10.90
2022-07-29T21:36:07.393Z,7.32
2022-07-29T21:38:31.494Z,6.88
2022-07-29T21:40:59.957Z,8.27
2022-07-29T21:43:28.849Z,7.65
2022-07-29T21:45:57.189Z,6.93
2022-07-29T21:48:27.761Z,7.15
2022-07-29T21:50:55.998Z,6.35
2022-07-29T21:53:26.707Z,9.07
2022-07-29T21:55:55.627Z,9.02
2022-07-29T21:58:24.814Z,7.90
2022-07-29T22:00:54.187Z,6.57
2022-07-29T22:03:22.708Z,7.90
2022-07-29T22:05:52.131Z,6.90
2022-07-29T22:08:21.469Z,7.68
2022-07-29T22:10:49.640Z,6.50
2022-07-29T22:13:17.732Z,7.95
2022-07-29T22:15:47.262Z,7.35
2022-07-29T22:18:20.988Z,7.15
2022-07-29T22:20:51.048Z,8.73
2022-07-29T22:23:19.224Z,9.90
2022-07-29T22:25:47.121Z,8.32
2022-07-29T22:28:15.023Z,6.85
2022-07-29T22:30:43.190Z,7.05
2022-07-29T22:33:17.810Z,8.73
2022-07-29T22:35:48.443Z,8.23
2022-07-29T22:38:18.761Z,4.80
2022-07-29T22:40:46.990Z,7.55
2022-07-29T22:43:16.634Z,9.82
2022-07-29T22:45:44.774Z,7.82
2022-07-29T22:48:12.894Z,7.38
2022-07-29T22:50:42.377Z,8.43
2022-07-29T22:53:10.503Z,9.30
2022-07-29T22:55:39.810Z,7.85
2022-07-29T22:58:08.237Z,7.57
2022-07-29T23:00:36.452Z,9.48
2022-07-29T23:03:04.740Z,7.30
2022-07-29T23:05:32.720Z,7.00
2022-07-29T23:08:00.891Z,5.57
2022-07-29T23:10:29.543Z,6.60
2022-07-29T23:12:59.069Z,8.63
2022-07-29T23:15:26.930Z,7.30
2022-07-29T23:17:54.865Z,8.57
2022-07-29T23:20:22.966Z,7.80
2022-07-29T23:22:51.260Z,10.20
2022-07-29T23:25:19.495Z,7.95
2022-07-29T23:27:47.567Z,8.13
2022-07-29T23:30:17.003Z,8.13
2022-07-29T23:32:45.073Z,9.57
2022-07-29T23:35:13.128Z,8.32
2022-07-29T23:37:41.030Z,7.95
2022-07-29T23:40:14.228Z,8.85
2022-07-29T23:42:43.179Z,7.78
2022-07-29T23:45:11.997Z,10.18
2022-07-29T23:47:42.449Z,6.25
2022-07-29T23:50:12.535Z,6.18
2022-07-29T23:52:41.558Z,7.50
2022-07-29T23:55:36.959Z,9.48
2022-07-29T23:57:58.837Z,9.00
